sensor_id;sensor_type;location;lat;lon;timestamp;pressure;altitude;pressure_sealevel;temperature
72054;BMP280;59918;51.280;7.950;2023-03-13T00:00:47;96974.69;;;8.83
72054;BMP280;59918;51.280;7.950;2023-03-13T00:03:12;96973.66;;;8.84
72054;BMP280;59918;51.280;7.950;2023-03-13T00:05:38;96964.56;;;8.88
72054;BMP280;59918;51.280;7.950;2023-03-13T00:08:03;96962.56;;;8.90
72054;BMP280;59918;51.280;7.950;2023-03-13T00:10:28;96960.00;;;8.90
72054;BMP280;59918;51.280;7.950;2023-03-13T00:12:53;96951.97;;;8.87
72054;BMP280;59918;51.280;7.950;2023-03-13T00:15:18;96955.53;;;8.86
72054;BMP280;59918;51.280;7.950;2023-03-13T00:17:43;96945.28;;;8.86
72054;BMP280;59918;51.280;7.950;2023-03-13T00:20:09;96932.25;;;8.87
72054;BMP280;59918;51.280;7.950;2023-03-13T00:22:34;96929.13;;;8.85
72054;BMP280;59918;51.280;7.950;2023-03-13T00:24:59;96926.75;;;8.84
72054;BMP280;59918;51.280;7.950;2023-03-13T00:27:24;96940.34;;;8.84
72054;BMP280;59918;51.280;7.950;2023-03-13T00:29:49;96922.41;;;8.84
72054;BMP280;59918;51.280;7.950;2023-03-13T00:32:14;96904.03;;;8.87
72054;BMP280;59918;51.280;7.950;2023-03-13T00:34:40;96894.00;;;8.86
72054;BMP280;59918;51.280;7.950;2023-03-13T00:37:05;96903.13;;;8.82
72054;BMP280;59918;51.280;7.950;2023-03-13T00:39:30;96888.50;;;8.82
72054;BMP280;59918;51.280;7.950;2023-03-13T00:41:55;96877.13;;;8.78
72054;BMP280;59918;51.280;7.950;2023-03-13T00:44:20;96877.13;;;8.78
72054;BMP280;59918;51.280;7.950;2023-03-13T00:46:45;96892.88;;;8.82
72054;BMP280;59918;51.280;7.950;2023-03-13T00:49:10;96875.84;;;8.87
72054;BMP280;59918;51.280;7.950;2023-03-13T00:51:36;96867.50;;;8.92
72054;BMP280;59918;51.280;7.950;2023-03-13T00:54:01;96871.41;;;8.94
72054;BMP280;59918;51.280;7.950;2023-03-13T00:56:26;96863.31;;;8.97
72054;BMP280;59918;51.280;7.950;2023-03-13T00:58:51;96871.13;;;9.02
72054;BMP280;59918;51.280;7.950;2023-03-13T01:03:42;96870.03;;;9.09
72054;BMP280;59918;51.280;7.950;2023-03-13T01:06:09;96866.81;;;9.14
72054;BMP280;59918;51.280;7.950;2023-03-13T01:08:35;96853.59;;;9.17
72054;BMP280;59918;51.280;7.950;2023-03-13T01:11:01;96860.63;;;9.21
72054;BMP280;59918;51.280;7.950;2023-03-13T01:13:30;96867.09;;;9.24
72054;BMP280;59918;51.280;7.950;2023-03-13T01:15:55;96851.28;;;9.27
72054;BMP280;59918;51.280;7.950;2023-03-13T01:18:20;96831.31;;;9.29
72054;BMP280;59918;51.280;7.950;2023-03-13T01:20:46;96825.16;;;9.30
72054;BMP280;59918;51.280;7.950;2023-03-13T01:23:11;96834.25;;;9.32
72054;BMP280;59918;51.280;7.950;2023-03-13T01:25:36;96827.31;;;9.33
72054;BMP280;59918;51.280;7.950;2023-03-13T01:28:01;96812.50;;;9.35
72054;BMP280;59918;51.280;7.950;2023-03-13T01:30:27;96804.78;;;9.35
72054;BMP280;59918;51.280;7.950;2023-03-13T01:32:52;96790.19;;;9.35
72054;BMP280;59918;51.280;7.950;2023-03-13T01:35:17;96792.75;;;9.35
72054;BMP280;59918;51.280;7.950;2023-03-13T01:37:42;96793.50;;;9.36
72054;BMP280;59918;51.280;7.950;2023-03-13T01:40:07;96774.00;;;9.35
72054;BMP280;59918;51.280;7.950;2023-03-13T01:42:47;96771.44;;;9.35
72054;BMP280;59918;51.280;7.950;2023-03-13T01:47:56;96752.69;;;9.23
72054;BMP280;59918;51.280;7.950;2023-03-13T01:50:21;96769.38;;;9.14
72054;BMP280;59918;51.280;7.950;2023-03-13T01:52:46;96745.63;;;9.07
72054;BMP280;59918;51.280;7.950;2023-03-13T01:55:12;96736.81;;;9.03
72054;BMP280;59918;51.280;7.950;2023-03-13T01:57:41;96724.41;;;9.00
72054;BMP280;59918;51.280;7.950;2023-03-13T02:00:12;96710.81;;;9.00
72054;BMP280;59918;51.280;7.950;2023-03-13T02:02:39;96720.28;;;8.99
72054;BMP280;59918;51.280;7.950;2023-03-13T02:05:05;96723.84;;;8.98
72054;BMP280;59918;51.280;7.950;2023-03-13T02:07:35;96706.69;;;8.99
72054;BMP280;59918;51.280;7.950;2023-03-13T02:10:01;96707.47;;;8.99
72054;BMP280;59918;51.280;7.950;2023-03-13T02:12:30;96709.69;;;8.96
72054;BMP280;59918;51.280;7.950;2023-03-13T02:14:56;96689.69;;;8.86
72054;BMP280;59918;51.280;7.950;2023-03-13T02:17:22;96685.91;;;8.77
72054;BMP280;59918;51.280;7.950;2023-03-13T02:19:48;96680.41;;;8.74
72054;BMP280;59918;51.280;7.950;2023-03-13T02:27:35;96669.47;;;8.67
72054;BMP280;59918;51.280;7.950;2023-03-13T02:30:00;96661.00;;;8.67
72054;BMP280;59918;51.280;7.950;2023-03-13T02:32:26;96664.69;;;8.71
72054;BMP280;59918;51.280;7.950;2023-03-13T02:34:53;96643.22;;;8.72
72054;BMP280;59918;51.280;7.950;2023-03-13T02:37:19;96634.50;;;8.73
72054;BMP280;59918;51.280;7.950;2023-03-13T02:39:45;96623.69;;;8.71
72054;BMP280;59918;51.280;7.950;2023-03-13T02:42:11;96617.03;;;8.70
72054;BMP280;59918;51.280;7.950;2023-03-13T02:44:38;96615.91;;;8.66
72054;BMP280;59918;51.280;7.950;2023-03-13T02:47:03;96607.66;;;8.64
72054;BMP280;59918;51.280;7.950;2023-03-13T02:49:29;96596.84;;;8.62
72054;BMP280;59918;51.280;7.950;2023-03-13T02:51:59;96595.06;;;8.62
72054;BMP280;59918;51.280;7.950;2023-03-13T02:54:27;96602.72;;;8.62
72054;BMP280;59918;51.280;7.950;2023-03-13T02:56:55;96602.72;;;8.62
72054;BMP280;59918;51.280;7.950;2023-03-13T02:59:21;96595.63;;;8.64
72054;BMP280;59918;51.280;7.950;2023-03-13T03:01:46;96577.69;;;8.64
72054;BMP280;59918;51.280;7.950;2023-03-13T03:04:11;96587.94;;;8.64
72054;BMP280;59918;51.280;7.950;2023-03-13T03:06:39;96560.16;;;8.61
72054;BMP280;59918;51.280;7.950;2023-03-13T03:09:04;96553.50;;;8.60
72054;BMP280;59918;51.280;7.950;2023-03-13T03:11:29;96556.63;;;8.62
72054;BMP280;59918;51.280;7.950;2023-03-13T03:13:54;96558.41;;;8.62
72054;BMP280;59918;51.280;7.950;2023-03-13T03:16:19;96569.22;;;8.64
72054;BMP280;59918;51.280;7.950;2023-03-13T03:18:45;96589.94;;;8.62
72054;BMP280;59918;51.280;7.950;2023-03-13T03:21:10;96580.44;;;8.63
72054;BMP280;59918;51.280;7.950;2023-03-13T03:23:35;96577.88;;;8.63
72054;BMP280;59918;51.280;7.950;2023-03-13T03:26:01;96564.88;;;8.64
72054;BMP280;59918;51.280;7.950;2023-03-13T03:28:26;96541.59;;;8.66
72054;BMP280;59918;51.280;7.950;2023-03-13T03:30:51;96540.34;;;8.68
72054;BMP280;59918;51.280;7.950;2023-03-13T03:33:16;96528.53;;;8.67
72054;BMP280;59918;51.280;7.950;2023-03-13T03:35:42;96542.72;;;8.70
72054;BMP280;59918;51.280;7.950;2023-03-13T03:38:07;96537.34;;;8.71
72054;BMP280;59918;51.280;7.950;2023-03-13T03:40:32;96533.00;;;8.72
72054;BMP280;59918;51.280;7.950;2023-03-13T03:42:57;96536.91;;;8.74
72054;BMP280;59918;51.280;7.950;2023-03-13T03:45:22;96529.78;;;8.76
72054;BMP280;59918;51.280;7.950;2023-03-13T03:47:47;96521.06;;;8.77
72054;BMP280;59918;51.280;7.950;2023-03-13T03:50:12;96552.63;;;8.77
72054;BMP280;59918;51.280;7.950;2023-03-13T03:52:38;96543.94;;;8.78
72054;BMP280;59918;51.280;7.950;2023-03-13T03:55:03;96528.13;;;8.81
72054;BMP280;59918;51.280;7.950;2023-03-13T03:57:28;96536.38;;;8.83
72054;BMP280;59918;51.280;7.950;2023-03-13T03:59:53;96526.66;;;8.85
72054;BMP280;59918;51.280;7.950;2023-03-13T04:02:18;96499.47;;;8.84
72054;BMP280;59918;51.280;7.950;2023-03-13T04:04:44;96503.59;;;8.85
72054;BMP280;59918;51.280;7.950;2023-03-13T04:07:09;96494.91;;;8.86
72054;BMP280;59918;51.280;7.950;2023-03-13T04:09:34;96516.75;;;8.89
72054;BMP280;59918;51.280;7.950;2023-03-13T04:11:59;96532.69;;;8.91
72054;BMP280;59918;51.280;7.950;2023-03-13T04:14:24;96514.28;;;8.94
72054;BMP280;59918;51.280;7.950;2023-03-13T04:16:49;96510.50;;;8.96
72054;BMP280;59918;51.280;7.950;2023-03-13T04:19:15;96516.41;;;8.97
72054;BMP280;59918;51.280;7.950;2023-03-13T04:21:40;96495.00;;;9.03
72054;BMP280;59918;51.280;7.950;2023-03-13T04:24:05;96484.28;;;9.06
72054;BMP280;59918;51.280;7.950;2023-03-13T04:26:30;96529.22;;;9.08
72054;BMP280;59918;51.280;7.950;2023-03-13T04:28:55;96509.81;;;9.12
72054;BMP280;59918;51.280;7.950;2023-03-13T04:31:20;96483.25;;;9.18
72054;BMP280;59918;51.280;7.950;2023-03-13T04:33:45;96475.13;;;9.21
72054;BMP280;59918;51.280;7.950;2023-03-13T04:36:11;96494.53;;;9.28
72054;BMP280;59918;51.280;7.950;2023-03-13T04:38:36;96504.88;;;9.33
72054;BMP280;59918;51.280;7.950;2023-03-13T04:41:01;96507.31;;;9.40
72054;BMP280;59918;51.280;7.950;2023-03-13T04:43:26;96506.88;;;9.43
72054;BMP280;59918;51.280;7.950;2023-03-13T04:45:51;96517.69;;;9.45
72054;BMP280;59918;51.280;7.950;2023-03-13T04:48:17;96523.91;;;9.48
72054;BMP280;59918;51.280;7.950;2023-03-13T04:50:42;96500.06;;;9.48
72054;BMP280;59918;51.280;7.950;2023-03-13T04:53:07;96504.72;;;9.51
72054;BMP280;59918;51.280;7.950;2023-03-13T04:55:32;96502.25;;;9.56
72054;BMP280;59918;51.280;7.950;2023-03-13T04:57:57;96484.09;;;9.57
72054;BMP280;59918;51.280;7.950;2023-03-13T05:00:22;96490.75;;;9.58
72054;BMP280;59918;51.280;7.950;2023-03-13T05:02:47;96501.78;;;9.59
72054;BMP280;59918;51.280;7.950;2023-03-13T05:05:13;96495.44;;;9.61
72054;BMP280;59918;51.280;7.950;2023-03-13T05:07:38;96486.72;;;9.62
72054;BMP280;59918;51.280;7.950;2023-03-13T05:10:03;96471.81;;;9.59
72054;BMP280;59918;51.280;7.950;2023-03-13T05:12:28;96472.78;;;9.58
72054;BMP280;59918;51.280;7.950;2023-03-13T05:14:53;96458.44;;;9.57
72054;BMP280;59918;51.280;7.950;2023-03-13T05:17:18;96478.94;;;9.57
72054;BMP280;59918;51.280;7.950;2023-03-13T05:19:44;96474.59;;;9.58
72054;BMP280;59918;51.280;7.950;2023-03-13T05:22:09;96456.41;;;9.59
72054;BMP280;59918;51.280;7.950;2023-03-13T05:24:34;96462.31;;;9.60
72054;BMP280;59918;51.280;7.950;2023-03-13T05:26:59;96446.69;;;9.61
72054;BMP280;59918;51.280;7.950;2023-03-13T05:29:24;96450.81;;;9.62
72054;BMP280;59918;51.280;7.950;2023-03-13T05:31:49;96447.25;;;9.63
72054;BMP280;59918;51.280;7.950;2023-03-13T05:34:14;96460.63;;;9.65
72054;BMP280;59918;51.280;7.950;2023-03-13T05:36:40;96437.06;;;9.68
72054;BMP280;59918;51.280;7.950;2023-03-13T05:39:05;96452.22;;;9.70
72054;BMP280;59918;51.280;7.950;2023-03-13T05:41:30;96439.19;;;9.71
72054;BMP280;59918;51.280;7.950;2023-03-13T05:43:55;96441.25;;;9.74
72054;BMP280;59918;51.280;7.950;2023-03-13T05:46:20;96446.19;;;9.76
72054;BMP280;59918;51.280;7.950;2023-03-13T05:48:45;96434.22;;;9.81
72054;BMP280;59918;51.280;7.950;2023-03-13T05:51:10;96435.31;;;9.85
72054;BMP280;59918;51.280;7.950;2023-03-13T05:53:36;96440.19;;;9.86
72054;BMP280;59918;51.280;7.950;2023-03-13T05:56:01;96436.41;;;9.89
72054;BMP280;59918;51.280;7.950;2023-03-13T05:58:26;96418.75;;;9.92
72054;BMP280;59918;51.280;7.950;2023-03-13T06:00:51;96420.88;;;9.95
72054;BMP280;59918;51.280;7.950;2023-03-13T06:03:16;96427.31;;;9.98
72054;BMP280;59918;51.280;7.950;2023-03-13T06:05:41;96426.88;;;10.01
72054;BMP280;59918;51.280;7.950;2023-03-13T06:08:07;96427.97;;;10.05
72054;BMP280;59918;51.280;7.950;2023-03-13T06:10:32;96427.28;;;10.09
72054;BMP280;59918;51.280;7.950;2023-03-13T06:12:57;96432.72;;;10.13
72054;BMP280;59918;51.280;7.950;2023-03-13T06:15:22;96435.34;;;10.18
72054;BMP280;59918;51.280;7.950;2023-03-13T06:17:47;96415.34;;;10.19
72054;BMP280;59918;51.280;7.950;2023-03-13T06:20:13;96410.53;;;10.23
72054;BMP280;59918;51.280;7.950;2023-03-13T06:22:38;96406.72;;;10.25
72054;BMP280;59918;51.280;7.950;2023-03-13T06:25:03;96410.84;;;10.26
72054;BMP280;59918;51.280;7.950;2023-03-13T06:27:29;96437.63;;;10.30
72054;BMP280;59918;51.280;7.950;2023-03-13T06:29:54;96420.75;;;10.34
72054;BMP280;59918;51.280;7.950;2023-03-13T06:32:19;96426.75;;;10.40
72054;BMP280;59918;51.280;7.950;2023-03-13T06:34:44;96422.44;;;10.45
72054;BMP280;59918;51.280;7.950;2023-03-13T06:37:09;96421.97;;;10.48
72054;BMP280;59918;51.280;7.950;2023-03-13T06:39:34;96424.84;;;10.52
72054;BMP280;59918;51.280;7.950;2023-03-13T06:41:59;96439.56;;;10.56
72054;BMP280;59918;51.280;7.950;2023-03-13T06:44:25;96438.31;;;10.58
72054;BMP280;59918;51.280;7.950;2023-03-13T06:46:50;96430.91;;;10.62
72054;BMP280;59918;51.280;7.950;2023-03-13T06:49:15;96443.28;;;10.65
72054;BMP280;59918;51.280;7.950;2023-03-13T06:51:40;96437.69;;;10.68
72054;BMP280;59918;51.280;7.950;2023-03-13T06:54:05;96440.03;;;10.69
72054;BMP280;59918;51.280;7.950;2023-03-13T06:56:30;96435.72;;;10.75
72054;BMP280;59918;51.280;7.950;2023-03-13T06:58:56;96432.69;;;10.78
72054;BMP280;59918;51.280;7.950;2023-03-13T07:01:21;96462.81;;;10.82
72054;BMP280;59918;51.280;7.950;2023-03-13T07:03:46;96436.41;;;10.87
72054;BMP280;59918;51.280;7.950;2023-03-13T07:06:12;96436.69;;;10.90
72054;BMP280;59918;51.280;7.950;2023-03-13T07:08:37;96413.31;;;10.92
72054;BMP280;59918;51.280;7.950;2023-03-13T07:11:03;96419.53;;;10.95
72054;BMP280;59918;51.280;7.950;2023-03-13T07:13:29;96427.56;;;10.99
72054;BMP280;59918;51.280;7.950;2023-03-13T07:15:55;96429.66;;;11.02
72054;BMP280;59918;51.280;7.950;2023-03-13T07:18:20;96437.66;;;11.05
72054;BMP280;59918;51.280;7.950;2023-03-13T07:20:52;96445.91;;;11.07
72054;BMP280;59918;51.280;7.950;2023-03-13T07:23:18;96445.47;;;11.10
72054;BMP280;59918;51.280;7.950;2023-03-13T07:25:43;96437.56;;;11.17
72054;BMP280;59918;51.280;7.950;2023-03-13T07:28:08;96435.09;;;11.27
72054;BMP280;59918;51.280;7.950;2023-03-13T07:30:33;96426.44;;;11.32
72054;BMP280;59918;51.280;7.950;2023-03-13T07:32:58;96442.47;;;11.39
72054;BMP280;59918;51.280;7.950;2023-03-13T07:35:23;96444.78;;;11.41
72054;BMP280;59918;51.280;7.950;2023-03-13T07:37:48;96441.97;;;11.42
72054;BMP280;59918;51.280;7.950;2023-03-13T07:40:14;96440.28;;;11.48
72054;BMP280;59918;51.280;7.950;2023-03-13T07:42:39;96441.34;;;11.52
72054;BMP280;59918;51.280;7.950;2023-03-13T07:45:04;96457.88;;;11.56
72054;BMP280;59918;51.280;7.950;2023-03-13T07:47:30;96463.56;;;11.58
72054;BMP280;59918;51.280;7.950;2023-03-13T07:49:57;96446.59;;;11.62
72054;BMP280;59918;51.280;7.950;2023-03-13T07:52:22;96450.50;;;11.64
72054;BMP280;59918;51.280;7.950;2023-03-13T07:54:47;96454.88;;;11.64
72054;BMP280;59918;51.280;7.950;2023-03-13T07:57:12;96476.78;;;11.66
72054;BMP280;59918;51.280;7.950;2023-03-13T07:59:38;96460.13;;;11.73
72054;BMP280;59918;51.280;7.950;2023-03-13T08:02:03;96460.69;;;11.80
72054;BMP280;59918;51.280;7.950;2023-03-13T08:04:28;96455.84;;;11.84
72054;BMP280;59918;51.280;7.950;2023-03-13T08:06:53;96456.91;;;11.88
72054;BMP280;59918;51.280;7.950;2023-03-13T08:09:19;96453.06;;;11.90
72054;BMP280;59918;51.280;7.950;2023-03-13T08:11:44;96425.53;;;11.91
72054;BMP280;59918;51.280;7.950;2023-03-13T08:14:09;96427.38;;;11.95
72054;BMP280;59918;51.280;7.950;2023-03-13T08:16:34;96419.97;;;12.03
72054;BMP280;59918;51.280;7.950;2023-03-13T08:19:00;96409.47;;;12.10
72054;BMP280;59918;51.280;7.950;2023-03-13T08:21:26;96424.72;;;12.16
72054;BMP280;59918;51.280;7.950;2023-03-13T08:23:52;96396.94;;;12.23
72054;BMP280;59918;51.280;7.950;2023-03-13T08:26:19;96416.84;;;12.28
72054;BMP280;59918;51.280;7.950;2023-03-13T08:28:45;96406.53;;;12.28
72054;BMP280;59918;51.280;7.950;2023-03-13T08:31:18;96411.47;;;12.34
72054;BMP280;59918;51.280;7.950;2023-03-13T08:33:44;96413.06;;;12.40
72054;BMP280;59918;51.280;7.950;2023-03-13T08:38:35;96382.94;;;12.50
72054;BMP280;59918;51.280;7.950;2023-03-13T08:41:00;96383.25;;;12.54
72054;BMP280;59918;51.280;7.950;2023-03-13T08:43:25;96386.09;;;12.57
72054;BMP280;59918;51.280;7.950;2023-03-13T08:45:54;96388.94;;;12.56
72054;BMP280;59918;51.280;7.950;2023-03-13T08:48:19;96377.03;;;12.55
72054;BMP280;59918;51.280;7.950;2023-03-13T08:50:44;96398.94;;;12.52
72054;BMP280;59918;51.280;7.950;2023-03-13T08:53:09;96370.59;;;12.52
72054;BMP280;59918;51.280;7.950;2023-03-13T08:55:34;96374.22;;;12.51
72054;BMP280;59918;51.280;7.950;2023-03-13T08:57:59;96374.75;;;12.53
72054;BMP280;59918;51.280;7.950;2023-03-13T09:00:25;96396.91;;;12.54
72054;BMP280;59918;51.280;7.950;2023-03-13T09:02:50;96401.81;;;12.56
72054;BMP280;59918;51.280;7.950;2023-03-13T09:05:15;96383.06;;;12.65
72054;BMP280;59918;51.280;7.950;2023-03-13T09:07:40;96381.84;;;12.77
72054;BMP280;59918;51.280;7.950;2023-03-13T09:10:05;96373.41;;;12.92
72054;BMP280;59918;51.280;7.950;2023-03-13T09:12:31;96379.38;;;12.97
72054;BMP280;59918;51.280;7.950;2023-03-13T09:14:56;96386.06;;;12.88
72054;BMP280;59918;51.280;7.950;2023-03-13T09:17:21;96395.28;;;12.79
72054;BMP280;59918;51.280;7.950;2023-03-13T09:19:46;96389.28;;;12.74
72054;BMP280;59918;51.280;7.950;2023-03-13T09:22:11;96393.16;;;12.72
72054;BMP280;59918;51.280;7.950;2023-03-13T09:24:36;96390.28;;;12.63
72054;BMP280;59918;51.280;7.950;2023-03-13T09:27:01;96376.34;;;12.64
72054;BMP280;59918;51.280;7.950;2023-03-13T09:29:27;96386.69;;;12.74
72054;BMP280;59918;51.280;7.950;2023-03-13T09:31:52;96374.94;;;12.83
72054;BMP280;59918;51.280;7.950;2023-03-13T09:34:17;96386.06;;;12.88
72054;BMP280;59918;51.280;7.950;2023-03-13T09:36:42;96378.31;;;12.93
72054;BMP280;59918;51.280;7.950;2023-03-13T09:39:07;96375.47;;;12.90
72054;BMP280;59918;51.280;7.950;2023-03-13T09:41:42;96400.22;;;12.86
72054;BMP280;59918;51.280;7.950;2023-03-13T09:44:19;96390.69;;;12.86
72054;BMP280;59918;51.280;7.950;2023-03-13T09:54:37;96385.34;;;12.62
72054;BMP280;59918;51.280;7.950;2023-03-13T09:57:11;96366.00;;;12.59
72054;BMP280;59918;51.280;7.950;2023-03-13T09:59:46;96373.31;;;12.77
72054;BMP280;59918;51.280;7.950;2023-03-13T10:02:28;96369.53;;;12.89
72054;BMP280;59918;51.280;7.950;2023-03-13T10:05:13;96349.66;;;12.90
72054;BMP280;59918;51.280;7.950;2023-03-13T10:07:40;96383.97;;;12.85
72054;BMP280;59918;51.280;7.950;2023-03-13T10:10:09;96369.78;;;12.88
72054;BMP280;59918;51.280;7.950;2023-03-13T10:12:37;96345.03;;;12.92
72054;BMP280;59918;51.280;7.950;2023-03-13T10:17:43;96354.88;;;12.95
72054;BMP280;59918;51.280;7.950;2023-03-13T10:22:49;96362.66;;;13.05
72054;BMP280;59918;51.280;7.950;2023-03-13T10:27:47;96367.59;;;13.16
72054;BMP280;59918;51.280;7.950;2023-03-13T10:30:18;96357.00;;;13.13
72054;BMP280;59918;51.280;7.950;2023-03-13T10:32:45;96354.66;;;13.11
72054;BMP280;59918;51.280;7.950;2023-03-13T10:35:10;96352.31;;;13.10
72054;BMP280;59918;51.280;7.950;2023-03-13T10:37:39;96357.97;;;13.02
72054;BMP280;59918;51.280;7.950;2023-03-13T10:42:44;96347.19;;;13.14
72054;BMP280;59918;51.280;7.950;2023-03-13T10:45:12;96343.88;;;13.29
72054;BMP280;59918;51.280;7.950;2023-03-13T10:47:38;96344.44;;;13.50
72054;BMP280;59918;51.280;7.950;2023-03-13T10:50:03;96351.16;;;13.51
72054;BMP280;59918;51.280;7.950;2023-03-13T10:55:04;96341.34;;;13.53
72054;BMP280;59918;51.280;7.950;2023-03-13T10:57:31;96326.66;;;13.93
72054;BMP280;59918;51.280;7.950;2023-03-13T10:59:56;96312.47;;;14.01
72054;BMP280;59918;51.280;7.950;2023-03-13T11:02:34;96318.91;;;13.88
72054;BMP280;59918;51.280;7.950;2023-03-13T11:05:01;96324.06;;;13.84
72054;BMP280;59918;51.280;7.950;2023-03-13T11:09:56;96317.25;;;14.76
72054;BMP280;59918;51.280;7.950;2023-03-13T11:12:21;96302.88;;;15.03
72054;BMP280;59918;51.280;7.950;2023-03-13T11:14:46;96292.25;;;15.05
72054;BMP280;59918;51.280;7.950;2023-03-13T11:19:38;96303.84;;;15.22
72054;BMP280;59918;51.280;7.950;2023-03-13T11:22:12;96282.28;;;15.69
72054;BMP280;59918;51.280;7.950;2023-03-13T11:32:36;96269.88;;;16.00
72054;BMP280;59918;51.280;7.950;2023-03-13T11:35:03;96262.47;;;15.88
72054;BMP280;59918;51.280;7.950;2023-03-13T11:37:32;96274.00;;;15.72
72054;BMP280;59918;51.280;7.950;2023-03-13T11:50:14;96224.63;;;20.18
72054;BMP280;59918;51.280;7.950;2023-03-13T12:00:47;96200.25;;;20.22
72054;BMP280;59918;51.280;7.950;2023-03-13T12:03:21;96209.22;;;20.38
72054;BMP280;59918;51.280;7.950;2023-03-13T12:05:52;96191.34;;;19.06
72054;BMP280;59918;51.280;7.950;2023-03-13T12:08:24;96188.59;;;18.63
72054;BMP280;59918;51.280;7.950;2023-03-13T12:11:25;96184.00;;;17.75
72054;BMP280;59918;51.280;7.950;2023-03-13T12:13:54;96185.16;;;17.01
72054;BMP280;59918;51.280;7.950;2023-03-13T12:16:25;96189.84;;;16.99
72054;BMP280;59918;51.280;7.950;2023-03-13T12:18:52;96166.84;;;16.75
72054;BMP280;59918;51.280;7.950;2023-03-13T12:21:22;96174.94;;;16.50
72054;BMP280;59918;51.280;7.950;2023-03-13T12:23:59;96182.69;;;16.55
72054;BMP280;59918;51.280;7.950;2023-03-13T12:26:33;96176.28;;;16.47
72054;BMP280;59918;51.280;7.950;2023-03-13T12:31:47;96167.91;;;16.32
72054;BMP280;59918;51.280;7.950;2023-03-13T12:35:06;96171.91;;;15.97
72054;BMP280;59918;51.280;7.950;2023-03-13T12:37:09;96164.97;;;15.64
72054;BMP280;59918;51.280;7.950;2023-03-13T12:39:39;96192.13;;;15.38
72054;BMP280;59918;51.280;7.950;2023-03-13T12:44:34;96151.94;;;15.74
72054;BMP280;59918;51.280;7.950;2023-03-13T12:50:10;96152.19;;;16.01
72054;BMP280;59918;51.280;7.950;2023-03-13T12:58:08;96147.44;;;15.84
72054;BMP280;59918;51.280;7.950;2023-03-13T13:00:35;96126.53;;;16.22
72054;BMP280;59918;51.280;7.950;2023-03-13T13:05:27;96124.63;;;16.69
72054;BMP280;59918;51.280;7.950;2023-03-13T13:07:53;96105.47;;;16.65
72054;BMP280;59918;51.280;7.950;2023-03-13T13:10:25;96113.91;;;17.57
72054;BMP280;59918;51.280;7.950;2023-03-13T13:15:34;96110.19;;;17.31
72054;BMP280;59918;51.280;7.950;2023-03-13T13:20:38;96078.75;;;19.91
72054;BMP280;59918;51.280;7.950;2023-03-13T13:25:44;96063.28;;;24.09
72054;BMP280;59918;51.280;7.950;2023-03-13T13:30:38;96070.00;;;25.93
72054;BMP280;59918;51.280;7.950;2023-03-13T13:35:44;96044.47;;;24.42
72054;BMP280;59918;51.280;7.950;2023-03-13T13:41:03;96067.72;;;20.66
72054;BMP280;59918;51.280;7.950;2023-03-13T13:43:33;96064.56;;;19.45
72054;BMP280;59918;51.280;7.950;2023-03-13T13:46:15;96038.34;;;18.55
72054;BMP280;59918;51.280;7.950;2023-03-13T13:48:43;96056.94;;;18.14
72054;BMP280;59918;51.280;7.950;2023-03-13T13:53:33;96041.72;;;18.21
72054;BMP280;59918;51.280;7.950;2023-03-13T13:56:24;96046.94;;;17.94
72054;BMP280;59918;51.280;7.950;2023-03-13T13:58:51;96040.88;;;17.72
72054;BMP280;59918;51.280;7.950;2023-03-13T14:01:19;96040.28;;;17.48
72054;BMP280;59918;51.280;7.950;2023-03-13T14:03:44;96023.25;;;17.69
72054;BMP280;59918;51.280;7.950;2023-03-13T14:06:18;96030.00;;;17.56
72054;BMP280;59918;51.280;7.950;2023-03-13T14:08:44;96025.75;;;17.34
72054;BMP280;59918;51.280;7.950;2023-03-13T14:13:38;96018.28;;;16.82
72054;BMP280;59918;51.280;7.950;2023-03-13T14:16:20;96015.91;;;16.54
72054;BMP280;59918;51.280;7.950;2023-03-13T14:18:46;96022.06;;;16.22
72054;BMP280;59918;51.280;7.950;2023-03-13T14:21:12;96015.63;;;15.55
72054;BMP280;59918;51.280;7.950;2023-03-13T14:23:38;96026.53;;;14.95
72054;BMP280;59918;51.280;7.950;2023-03-13T14:28:48;96024.25;;;14.61
72054;BMP280;59918;51.280;7.950;2023-03-13T14:33:54;96002.81;;;14.56
72054;BMP280;59918;51.280;7.950;2023-03-13T14:36:19;96018.16;;;14.42
72054;BMP280;59918;51.280;7.950;2023-03-13T14:38:52;96018.84;;;14.20
72054;BMP280;59918;51.280;7.950;2023-03-13T14:41:26;96015.84;;;14.03
72054;BMP280;59918;51.280;7.950;2023-03-13T14:43:52;96010.19;;;13.91
72054;BMP280;59918;51.280;7.950;2023-03-13T14:46:34;96021.84;;;13.84
72054;BMP280;59918;51.280;7.950;2023-03-13T14:49:32;95993.16;;;13.90
72054;BMP280;59918;51.280;7.950;2023-03-13T14:51:58;95997.75;;;13.98
72054;BMP280;59918;51.280;7.950;2023-03-13T14:54:25;96004.72;;;14.02
72054;BMP280;59918;51.280;7.950;2023-03-13T14:57:00;95995.41;;;14.06
72054;BMP280;59918;51.280;7.950;2023-03-13T14:59:26;95973.28;;;14.28
72054;BMP280;59918;51.280;7.950;2023-03-13T15:02:01;95982.78;;;14.38
72054;BMP280;59918;51.280;7.950;2023-03-13T15:07:10;95975.97;;;14.47
72054;BMP280;59918;51.280;7.950;2023-03-13T15:09:40;95958.19;;;14.45
72054;BMP280;59918;51.280;7.950;2023-03-13T15:12:11;95965.19;;;14.40
72054;BMP280;59918;51.280;7.950;2023-03-13T15:14:38;95977.66;;;14.33
72054;BMP280;59918;51.280;7.950;2023-03-13T15:17:08;95959.09;;;14.26
72054;BMP280;59918;51.280;7.950;2023-03-13T15:19:35;95949.06;;;14.20
72054;BMP280;59918;51.280;7.950;2023-03-13T15:22:02;95952.72;;;14.14
72054;BMP280;59918;51.280;7.950;2023-03-13T15:24:28;95946.06;;;14.08
72054;BMP280;59918;51.280;7.950;2023-03-13T15:26:53;95929.81;;;14.02
72054;BMP280;59918;51.280;7.950;2023-03-13T15:29:18;95927.72;;;13.99
72054;BMP280;59918;51.280;7.950;2023-03-13T15:31:43;95919.47;;;13.97
72054;BMP280;59918;51.280;7.950;2023-03-13T15:34:12;95933.16;;;13.98
72054;BMP280;59918;51.280;7.950;2023-03-13T15:36:37;95921.91;;;13.79
72054;BMP280;59918;51.280;7.950;2023-03-13T15:39:03;95912.50;;;13.55
72054;BMP280;59918;51.280;7.950;2023-03-13T15:41:28;95911.53;;;13.41
72054;BMP280;59918;51.280;7.950;2023-03-13T15:43:53;95908.50;;;13.29
72054;BMP280;59918;51.280;7.950;2023-03-13T15:46:18;95911.59;;;13.26
72054;BMP280;59918;51.280;7.950;2023-03-13T15:48:43;95898.97;;;13.20
72054;BMP280;59918;51.280;7.950;2023-03-13T15:51:09;95894.59;;;13.15
72054;BMP280;59918;51.280;7.950;2023-03-13T15:53:35;95884.31;;;13.11
72054;BMP280;59918;51.280;7.950;2023-03-13T15:56:00;95896.19;;;13.07
72054;BMP280;59918;51.280;7.950;2023-03-13T15:58:26;95882.28;;;13.03
72054;BMP280;59918;51.280;7.950;2023-03-13T16:00:51;95882.22;;;13.08